Cooper Moran — WDI9156 — position and weather

sailwx.info

Track history (hours):
 
Tides and Currents Weather Stations Pressure Air Temp Water Temp Dewpoint Dewpoint Depression Visibility Wind Speed Wind Dir Waves Ship Positions

Cooper Moran

Owner: MORAN TOWING CORPORATION, New Canaan, CT. More information available from US FCC via Universal Licensing System and Coast Guard Vessel Documentation Center.

Last reported at 2018-Feb-19 00:00 UTC. Time now 2018-Feb-19 00:13 UTC.
Position N 32°05' W 081°04'.

Length 28 m; draft 5.2 m.

Type: Tug. MMSI: 367745820.

Date/timePositionNaut miles runAvg speedWind from/ knotsBaromVisibWave heightAir tempDewpointWater temp
2018-Feb-19 00:00N 32°05' W 081°04'0 0.0
2018-Feb-18 23:30N 32°05' W 081°04'0 0.0
2018-Feb-18 22:59N 32°05' W 081°04'0 0.0
2018-Feb-18 22:30N 32°05' W 081°04'0 0.0
2018-Feb-18 22:00N 32°05' W 081°04'0 0.0
2018-Feb-18 21:30N 32°05' W 081°04'0 0.0
2018-Feb-18 21:00N 32°05' W 081°04'0 0.0
2018-Feb-18 20:29N 32°05' W 081°04'0 0.0
2018-Feb-18 20:00N 32°05' W 081°04'0 0.0
2018-Feb-18 19:29N 32°05' W 081°04'0 0.0
2018-Feb-18 19:00N 32°05' W 081°04'0 0.0
2018-Feb-18 18:30N 32°05' W 081°04'0 0.0
2018-Feb-18 17:58N 32°05' W 081°04'1 1.3
2018-Feb-18 17:30N 32°05' W 081°05'4 8.5
2018-Feb-18 17:00N 32°08' W 081°08'1 1.3
2018-Feb-18 16:30N 32°08' W 081°09'1 1.5
2018-Feb-18 16:00N 32°08' W 081°08'3 5.0
2018-Feb-18 15:30N 32°06' W 081°06'2 4.5
2018-Feb-18 15:00N 32°05' W 081°04'1 2.7
2018-Feb-18 14:30N 32°05' W 081°02'1 1.7
2018-Feb-18 14:00N 32°05' W 081°03'3 6.1
2018-Feb-18 13:30N 32°06' W 081°06'3 5.7
2018-Feb-18 13:00N 32°08' W 081°08'0 0.8
2018-Feb-18 12:30N 32°08' W 081°09'1 2.6
2018-Feb-18 12:00N 32°07' W 081°08'0 0.0
2018-Feb-18 11:30N 32°07' W 081°08'0 0.0
2018-Feb-18 11:00N 32°07' W 081°08'0 0.0
2018-Feb-18 10:30N 32°07' W 081°08'1 1.3
2018-Feb-18 10:00N 32°08' W 081°08'0 0.3
2018-Feb-18 09:29N 32°08' W 081°08'3 6.3
2018-Feb-18 09:00N 32°05' W 081°06'2 3.8
2018-Feb-18 08:30N 32°05' W 081°04'0 0.0
2018-Feb-18 07:59N 32°05' W 081°04'0 0.0
2018-Feb-18 07:30N 32°05' W 081°04'0 0.0
2018-Feb-18 07:00N 32°05' W 081°04'0 0.0
2018-Feb-18 06:30N 32°05' W 081°04'0 0.0
2018-Feb-18 06:00N 32°05' W 081°04'0 0.0
2018-Feb-18 05:30N 32°05' W 081°04'0 0.0
2018-Feb-18 04:58N 32°05' W 081°04'0 0.0
2018-Feb-18 04:30N 32°05' W 081°04'0 0.0
2018-Feb-18 04:00N 32°05' W 081°04'0 0.0
2018-Feb-18 03:30N 32°05' W 081°04'2 4.8
2018-Feb-18 03:00N 32°06' W 081°06'3 5.4
2018-Feb-18 02:29N 32°08' W 081°08'2 3.4
2018-Feb-18 02:00N 32°07' W 081°07'3 6.8
2018-Feb-18 01:30N 32°05' W 081°04'0 0.0
2018-Feb-18 01:00N 32°05' W 081°04'0 0.0
2018-Feb-18 00:30N 32°05' W 081°04'0 0.0
2018-Feb-18 00:00N 32°05' W 081°04'0 0.0
2018-Feb-17 23:30N 32°05' W 081°04'0 0.6
2018-Feb-17 23:00N 32°05' W 081°04'0 0.6
2018-Feb-17 22:30N 32°05' W 081°04'1 1.2
2018-Feb-17 22:00N 32°05' W 081°04'0 0.0
2018-Feb-17 21:25N 32°05' W 081°04'0 0.0
2018-Feb-17 21:00N 32°05' W 081°04'0 0.0
2018-Feb-17 20:28N 32°05' W 081°04'0 0.0
2018-Feb-17 20:00N 32°05' W 081°04'0 0.0
2018-Feb-17 19:28N 32°05' W 081°04'0 0.0
2018-Feb-17 18:58N 32°05' W 081°04'0 0.0
2018-Feb-17 18:28N 32°05' W 081°04'0 0.0
2018-Feb-17 18:00N 32°05' W 081°04'1 1.2
2018-Feb-17 17:30N 32°05' W 081°05'3 5.9
2018-Feb-17 17:00N 32°07' W 081°07'2 3.5
2018-Feb-17 16:30N 32°08' W 081°08'0 0.3
2018-Feb-17 16:00N 32°08' W 081°09'0 0.1
2018-Feb-17 15:30N 32°08' W 081°08'1 2.7
2018-Feb-17 15:00N 32°07' W 081°08'3 5.4
2018-Feb-17 14:30N 32°05' W 081°05'4 7.1
2018-Feb-17 14:00N 32°05' W 081°01'2 4.2
2018-Feb-17 13:30N 32°05' W 081°04'3 7.0
2018-Feb-17 13:00N 32°07' W 081°07'2 3.8
2018-Feb-17 12:30N 32°08' W 081°09'1 1.1
2018-Feb-17 12:00N 32°08' W 081°08'0 0.7
2018-Feb-17 11:30N 32°08' W 081°08'0 0.1
2018-Feb-17 11:00N 32°08' W 081°09'0 0.4
2018-Feb-17 10:30N 32°08' W 081°09'0 0.0
2018-Feb-17 10:00N 32°08' W 081°09'0 0.0
2018-Feb-17 09:28N 32°08' W 081°09'0 0.0
2018-Feb-17 09:00N 32°08' W 081°09'0 0.0
2018-Feb-17 08:30N 32°08' W 081°09'0 0.0
2018-Feb-17 08:00N 32°08' W 081°09'0 0.0
2018-Feb-17 07:30N 32°08' W 081°09'0 0.0
2018-Feb-17 07:00N 32°08' W 081°09'0 0.0
2018-Feb-17 06:30N 32°08' W 081°09'0 0.0
2018-Feb-17 06:00N 32°08' W 081°09'0 0.0
2018-Feb-17 05:30N 32°08' W 081°09'0 0.0
2018-Feb-17 05:00N 32°08' W 081°09'0 0.0
2018-Feb-17 04:30N 32°08' W 081°09'0 0.0
2018-Feb-17 03:58N 32°08' W 081°09'0 0.0
2018-Feb-17 03:30N 32°08' W 081°09'1 1.7
2018-Feb-17 03:00N 32°07' W 081°08'0 0.8
2018-Feb-17 02:30N 32°08' W 081°08'3 5.9
2018-Feb-17 02:00N 32°05' W 081°06'3 5.5
2018-Feb-17 01:30N 32°08' W 081°08'0 0.6
2018-Feb-17 01:00N 32°07' W 081°08'1 1.5
2018-Feb-17 00:30N 32°07' W 081°07'3 7.0
2018-Feb-17 00:00N 32°05' W 081°04'0 0.5
2018-Feb-16 23:30N 32°05' W 081°04'0 0.0
2018-Feb-16 23:00N 32°05' W 081°04'0 0.0
2018-Feb-16 22:28N 32°05' W 081°04'0 0.0
2018-Feb-16 22:00N 32°05' W 081°04'0 0.0
2018-Feb-16 21:30N 32°05' W 081°04'0 0.0
2018-Feb-16 21:00N 32°05' W 081°04'0 0.0
2018-Feb-16 20:30N 32°05' W 081°04'0 0.0
2018-Feb-16 20:00N 32°05' W 081°04'0 0.0
2018-Feb-16 19:29N 32°05' W 081°04'0 0.0
2018-Feb-16 19:00N 32°05' W 081°04'0 0.0
2018-Feb-16 18:29N 32°05' W 081°04'0 0.0
2018-Feb-16 18:00N 32°05' W 081°04'0 0.0
2018-Feb-16 17:30N 32°05' W 081°04'3 6.5
2018-Feb-16 17:00N 32°06' W 081°07'2 4.0
2018-Feb-16 16:30N 32°08' W 081°09'0 0.2
2018-Feb-16 16:00N 32°08' W 081°08'0 0.7
2018-Feb-16 15:30N 32°08' W 081°09'1 1.3
2018-Feb-16 15:00N 32°08' W 081°08'3 5.3
2018-Feb-16 14:30N 32°06' W 081°06'2 4.6
2018-Feb-16 14:00N 32°05' W 081°04'0 0.0
2018-Feb-16 13:30N 32°05' W 081°04'0 0.0
2018-Feb-16 13:00N 32°05' W 081°04'1 1.0
2018-Feb-16 12:28N 32°05' W 081°04'3 6.2
2018-Feb-16 12:00N 32°06' W 081°07'2 4.2
2018-Feb-16 11:30N 32°08' W 081°08'0 0.1
2018-Feb-16 11:00N 32°08' W 081°09'1 2.5
2018-Feb-16 10:30N 32°07' W 081°08'4 7.2
2018-Feb-16 10:00N 32°05' W 081°05'1 1.3
2018-Feb-16 09:28N 32°05' W 081°04'0 0.0
2018-Feb-16 08:59N 32°05' W 081°04'0 0.0
2018-Feb-16 08:30N 32°05' W 081°04'0 0.0
2018-Feb-16 08:00N 32°05' W 081°04'0 0.0
2018-Feb-16 07:30N 32°05' W 081°04'0 0.0
2018-Feb-16 07:00N 32°05' W 081°04'0 0.0
2018-Feb-16 06:29N 32°05' W 081°04'0 0.0
2018-Feb-16 06:00N 32°05' W 081°04'0 0.0
2018-Feb-16 05:28N 32°05' W 081°04'0 0.0
2018-Feb-16 04:53N 32°05' W 081°04'0 0.0
2018-Feb-16 04:30N 32°05' W 081°04'0 0.0
2018-Feb-16 03:59N 32°05' W 081°04'0 0.0
2018-Feb-16 03:30N 32°05' W 081°04'0 0.0
2018-Feb-16 03:00N 32°05' W 081°04'0 0.0
2018-Feb-16 02:27N 32°05' W 081°04'0 0.0
2018-Feb-16 02:00N 32°05' W 081°04'0 0.0
2018-Feb-16 01:28N 32°05' W 081°04'0 0.0
2018-Feb-16 00:58N 32°05' W 081°04'0 0.0
2018-Feb-16 00:30N 32°05' W 081°04'0 0.0
2018-Feb-16 00:00N 32°05' W 081°04'0 0.0
2018-Feb-15 23:30N 32°05' W 081°04'0 0.0
2018-Feb-15 23:00N 32°05' W 081°04'0 0.0
2018-Feb-15 22:30N 32°05' W 081°04'0 0.0
2018-Feb-15 22:00N 32°05' W 081°04'0 0.0
2018-Feb-15 21:30N 32°05' W 081°04'0 0.0
2018-Feb-15 20:59N 32°05' W 081°04'0 0.0
2018-Feb-15 20:30N 32°05' W 081°04'0 0.0
2018-Feb-15 20:00N 32°05' W 081°04'0 0.0
2018-Feb-15 19:30N 32°05' W 081°04'0 0.0
2018-Feb-15 19:00N 32°05' W 081°04'0 0.0
2018-Feb-15 18:30N 32°05' W 081°04'1 1.1
2018-Feb-15 18:00N 32°05' W 081°04'4 8.0
2018-Feb-15 17:30N 32°07' W 081°08'0 0.5
2018-Feb-15 17:00N 32°07' W 081°08'0 0.9
2018-Feb-15 16:30N 32°07' W 081°07'1 2.0
2018-Feb-15 16:00N 32°08' W 081°08'0 0.3
2018-Feb-15 15:30N 32°08' W 081°08'3 5.5
2018-Feb-15 15:00N 32°06' W 081°06'1 1.1
2018-Feb-15 14:30N 32°05' W 081°06'0 0.0
2018-Feb-15 14:00N 32°05' W 081°06'0 0.0
2018-Feb-15 13:30N 32°05' W 081°06'0 0.0
2018-Feb-15 13:00N 32°05' W 081°06'2 3.3
2018-Feb-15 12:30N 32°05' W 081°04'4 7.6
2018-Feb-15 12:00N 32°07' W 081°08'1 1.7
2018-Feb-15 11:30N 32°08' W 081°08'0 0.4
2018-Feb-15 11:00N 32°08' W 081°08'2 4.5
2018-Feb-15 10:31N 32°06' W 081°07'3 5.6
2018-Feb-15 10:00N 32°05' W 081°04'1 2.8
2018-Feb-15 09:30N 32°05' W 081°02'1 3.0
2018-Feb-15 09:00N 32°05' W 081°04'0 0.0
2018-Feb-15 08:30N 32°05' W 081°04'0 0.0
2018-Feb-15 08:00N 32°05' W 081°04'0 0.0
2018-Feb-15 07:30N 32°05' W 081°04'0 0.0
2018-Feb-15 07:00N 32°05' W 081°04'0 0.0
2018-Feb-15 06:29N 32°05' W 081°04'1 1.2
2018-Feb-15 05:59N 32°05' W 081°04'3 6.7
2018-Feb-15 05:30N 32°07' W 081°07'1 3.0
2018-Feb-15 05:00N 32°06' W 081°06'2 3.7
2018-Feb-15 04:30N 32°05' W 081°04'0 0.9
2018-Feb-15 04:00N 32°05' W 081°04'0 0.0
2018-Feb-15 03:30N 32°05' W 081°04'0 0.0
2018-Feb-15 02:57N 32°05' W 081°04'0 0.0
2018-Feb-15 02:30N 32°05' W 081°04'0 0.0
2018-Feb-15 02:00N 32°05' W 081°04'4 7.4
2018-Feb-15 01:30N 32°07' W 081°08'1 2.9
2018-Feb-15 01:00N 32°08' W 081°09'0 0.1
2018-Feb-15 00:30N 32°08' W 081°08'1 2.0
2018-Feb-15 00:00N 32°07' W 081°08'2 4.3
2018-Feb-14 23:30N 32°05' W 081°06'0 0.0
2018-Feb-14 22:57N 32°05' W 081°06'0 0.0
2018-Feb-14 22:30N 32°05' W 081°06'2 3.2
2018-Feb-14 22:00N 32°07' W 081°07'1 2.7
2018-Feb-14 21:30N 32°08' W 081°08'0 0.3
2018-Feb-14 21:00N 32°08' W 081°08'0 0.2
2018-Feb-14 20:29N 32°08' W 081°08'0 0.2
2018-Feb-14 20:00N 32°08' W 081°08'2 3.0
2018-Feb-14 19:30N 32°07' W 081°07'3 6.3
2018-Feb-14 19:00N 32°05' W 081°04'1 1.0
2018-Feb-14 18:30N 32°05' W 081°04'0 0.0
2018-Feb-14 17:56N 32°05' W 081°04'0 0.0
2018-Feb-14 17:30N 32°05' W 081°04'0 0.0
2018-Feb-14 16:59N 32°05' W 081°04'0 0.0
2018-Feb-14 16:30N 32°05' W 081°04'0 0.0
2018-Feb-14 16:00N 32°05' W 081°04'0 0.0
2018-Feb-14 15:30N 32°05' W 081°04'1 1.3
2018-Feb-14 15:00N 32°05' W 081°05'4 8.4
2018-Feb-14 14:30N 32°08' W 081°08'1 1.5
2018-Feb-14 14:00N 32°08' W 081°09'1 1.6
2018-Feb-14 13:30N 32°08' W 081°08'2 4.6
2018-Feb-14 13:00N 32°06' W 081°06'2 4.6
2018-Feb-14 12:30N 32°05' W 081°04'3 5.9
2018-Feb-14 12:00N 32°06' W 081°01'3 6.9
2018-Feb-14 11:30N 32°04' W 080°57'3 5.8
2018-Feb-14 11:00N 32°06' W 080°60'3 6.6
2018-Feb-14 10:30N 32°05' W 081°04'0 0.2
2018-Feb-14 10:00N 32°05' W 081°04'0 0.0
2018-Feb-14 09:29N 32°05' W 081°04'0 0.0
2018-Feb-14 08:58N 32°05' W 081°04'1 1.5
2018-Feb-14 08:30N 32°05' W 081°03'3 5.2
2018-Feb-14 08:00N 32°05' W 081°06'2 4.8
2018-Feb-14 07:30N 32°07' W 081°08'1 2.5
2018-Feb-14 07:00N 32°08' W 081°09'0 0.1
2018-Feb-14 06:29N 32°08' W 081°09'1 1.5
2018-Feb-14 06:00N 32°08' W 081°08'3 7.0
2018-Feb-14 05:30N 32°05' W 081°06'1 2.9
2018-Feb-14 05:00N 32°05' W 081°04'0 0.0
2018-Feb-14 04:30N 32°05' W 081°04'0 0.0
2018-Feb-14 04:00N 32°05' W 081°04'0 0.0
2018-Feb-14 03:29N 32°05' W 081°04'0 0.0
2018-Feb-14 02:58N 32°05' W 081°04'0 0.0
2018-Feb-14 02:30N 32°05' W 081°04'1 2.5
2018-Feb-14 02:00N 32°05' W 081°05'3 6.7
2018-Feb-14 01:30N 32°07' W 081°08'1 2.3
2018-Feb-14 01:00N 32°06' W 081°07'3 6.6
2018-Feb-14 00:30N 32°05' W 081°04'0 0.1
2018-Feb-13 23:56N 32°05' W 081°04'0 0.7
2018-Feb-13 23:30N 32°05' W 081°04'3 6.9
2018-Feb-13 23:00N 32°07' W 081°07'1 1.4
2018-Feb-13 22:30N 32°07' W 081°08'0 0.4
2018-Feb-13 22:00N 32°07' W 081°08'2 2.9
2018-Feb-13 21:29N 32°06' W 081°07'2 3.9
2018-Feb-13 21:00N 32°07' W 081°08'0 0.1
2018-Feb-13 20:30N 32°07' W 081°08'0 0.0
2018-Feb-13 20:00N 32°07' W 081°08'1 1.5
2018-Feb-13 19:30N 32°08' W 081°08'0 0.3
2018-Feb-13 19:00N 32°08' W 081°08'2 3.3
2018-Feb-13 18:30N 32°07' W 081°07'2 3.0
2018-Feb-13 18:00N 32°05' W 081°06'0 0.0
2018-Feb-13 17:30N 32°05' W 081°06'0 0.0
2018-Feb-13 17:00N 32°05' W 081°06'0 0.0
2018-Feb-13 16:30N 32°05' W 081°06'2 4.3
2018-Feb-13 16:00N 32°07' W 081°08'1 2.2
2018-Feb-13 15:30N 32°08' W 081°08'1 1.8
2018-Feb-13 15:00N 32°07' W 081°08'0 0.0
2018-Feb-13 14:30N 32°07' W 081°08'0 0.0
2018-Feb-13 14:00N 32°07' W 081°08'0 0.0
2018-Feb-13 13:28N 32°07' W 081°08'0 0.0
2018-Feb-13 13:00N 32°07' W 081°08'0 0.0
2018-Feb-13 12:30N 32°07' W 081°08'0 0.0
2018-Feb-13 12:00N 32°07' W 081°08'0 0.0
2018-Feb-13 11:30N 32°07' W 081°08'0 0.0
2018-Feb-13 11:00N 32°07' W 081°08'0 0.0
2018-Feb-13 10:30N 32°07' W 081°08'0 0.0
2018-Feb-13 09:58N 32°07' W 081°08'0 0.0
2018-Feb-13 09:29N 32°07' W 081°08'0 0.0
2018-Feb-13 08:59N 32°07' W 081°08'2 3.4
2018-Feb-13 08:30N 32°09' W 081°09'0 0.0
2018-Feb-13 08:00N 32°09' W 081°09'1 2.4
2018-Feb-13 07:30N 32°08' W 081°08'1 1.0
2018-Feb-13 07:00N 32°08' W 081°08'2 3.1
2018-Feb-13 06:30N 32°07' W 081°07'3 6.8
2018-Feb-13 06:00N 32°05' W 081°04'0 0.6
2018-Feb-13 05:29N 32°05' W 081°04'0 0.0
2018-Feb-13 05:00N 32°05' W 081°04'0 0.0
2018-Feb-13 04:27N 32°05' W 081°04'0 0.0
2018-Feb-13 03:59N 32°05' W 081°04'0 0.0
2018-Feb-13 03:30N 32°05' W 081°04'0 1.0
2018-Feb-13 03:00N 32°05' W 081°04'4 8.6
2018-Feb-13 02:30N 32°08' W 081°08'0 0.3
2018-Feb-13 02:00N 32°08' W 081°08'2 3.5
2018-Feb-13 01:30N 32°06' W 081°07'3 6.0
2018-Feb-13 01:00N 32°05' W 081°04'0 0.0
2018-Feb-13 00:30N 32°05' W 081°04'0 0.0
2018-Feb-13 00:00N 32°05' W 081°04'0 0.0
2018-Feb-12 23:29N 32°05' W 081°04'0 0.0
2018-Feb-12 23:00N 32°05' W 081°04'0 0.0
2018-Feb-12 22:30N 32°05' W 081°04'0 0.0
2018-Feb-12 22:00N 32°05' W 081°04'0 0.0
2018-Feb-12 21:30N 32°05' W 081°04'0 0.0
2018-Feb-12 21:00N 32°05' W 081°04'0 0.8
2018-Feb-12 20:30N 32°05' W 081°04'4 7.9
2018-Feb-12 20:00N 32°07' W 081°08'1 1.2
2018-Feb-12 19:30N 32°08' W 081°08'3 5.3
2018-Feb-12 19:00N 32°06' W 081°06'2 4.6
2018-Feb-12 18:30N 32°07' W 081°08'0 0.1
2018-Feb-12 18:00N 32°07' W 081°08'0 0.1
2018-Feb-12 17:30N 32°07' W 081°08'2 5.0
2018-Feb-12 17:00N 32°06' W 081°06'2 4.2
2018-Feb-12 16:30N 32°05' W 081°04'0 0.0
2018-Feb-12 15:59N 32°05' W 081°04'0 0.0
2018-Feb-12 15:30N 32°05' W 081°04'0 0.0
2018-Feb-12 14:59N 32°05' W 081°04'0 0.0
2018-Feb-12 14:30N 32°05' W 081°04'0 0.0
2018-Feb-12 14:00N 32°05' W 081°04'0 0.0
2018-Feb-12 13:30N 32°05' W 081°04'0 0.0
2018-Feb-12 13:00N 32°05' W 081°04'0 0.0
2018-Feb-12 12:30N 32°05' W 081°04'0 0.0
2018-Feb-12 12:00N 32°05' W 081°04'0 0.0
2018-Feb-12 11:23N 32°05' W 081°04'0 0.0
2018-Feb-12 11:00N 32°05' W 081°04'1 2.6
2018-Feb-12 10:30N 32°05' W 081°05'1 2.1
2018-Feb-12 10:00N 32°06' W 081°06'3 6.3
2018-Feb-12 09:29N 32°08' W 081°09'0 0.0
2018-Feb-12 09:00N 32°08' W 081°09'0 0.7
2018-Feb-12 08:30N 32°08' W 081°08'2 4.0
2018-Feb-12 08:00N 32°06' W 081°07'3 6.3
2018-Feb-12 07:30N 32°05' W 081°04'1 2.4
2018-Feb-12 07:00N 32°05' W 081°02'1 2.3
2018-Feb-12 06:30N 32°05' W 081°04'0 0.0
2018-Feb-12 06:00N 32°05' W 081°04'0 0.0
2018-Feb-12 05:29N 32°05' W 081°04'0 0.0
2018-Feb-12 05:00N 32°05' W 081°04'0 0.0
2018-Feb-12 04:30N 32°05' W 081°04'0 0.0
2018-Feb-12 03:59N 32°05' W 081°04'0 0.0
2018-Feb-12 03:30N 32°05' W 081°04'0 0.0
2018-Feb-12 03:00N 32°05' W 081°04'3 5.5
2018-Feb-12 02:30N 32°06' W 081°07'2 4.0
2018-Feb-12 02:00N 32°08' W 081°08'1 2.5
2018-Feb-12 01:30N 32°07' W 081°07'3 6.9
2018-Feb-12 01:00N 32°05' W 081°04'0 0.0
2018-Feb-12 00:30N 32°05' W 081°04'0 0.0
2018-Feb-11 23:57N 32°05' W 081°04'0 0.0
2018-Feb-11 23:29N 32°05' W 081°04'0 0.0
2018-Feb-11 23:00N 32°05' W 081°04'0 0.0
2018-Feb-11 22:30N 32°05' W 081°04'0 0.0
2018-Feb-11 22:00N 32°05' W 081°04'0 0.0
2018-Feb-11 21:30N 32°05' W 081°04'0 0.0
2018-Feb-11 21:00N 32°05' W 081°04'0 0.0
2018-Feb-11 20:30N 32°05' W 081°04'0 0.0
2018-Feb-11 19:57N 32°05' W 081°04'0 0.0
2018-Feb-11 19:30N 32°05' W 081°04'0 0.0
2018-Feb-11 19:00N 32°05' W 081°04'0 0.0
2018-Feb-11 18:30N 32°05' W 081°04'0 0.0
2018-Feb-11 18:00N 32°05' W 081°04'0 0.0
2018-Feb-11 17:26N 32°05' W 081°04'0 0.0
2018-Feb-11 16:57N 32°05' W 081°04'0 0.0
2018-Feb-11 16:30N 32°05' W 081°04'0 0.0
2018-Feb-11 15:56N 32°05' W 081°04'0 0.0
2018-Feb-11 15:30N 32°05' W 081°04'0 0.0
2018-Feb-11 15:00N 32°05' W 081°04'0 0.0
2018-Feb-11 14:29N 32°05' W 081°04'0 0.0
2018-Feb-11 14:00N 32°05' W 081°04'0 0.0
2018-Feb-11 13:30N 32°05' W 081°04'0 0.0
2018-Feb-11 13:00N 32°05' W 081°04'0 0.0
2018-Feb-11 12:30N 32°05' W 081°04'0 0.0
2018-Feb-11 11:59N 32°05' W 081°04'0 0.0
2018-Feb-11 11:30N 32°05' W 081°04'0 0.0
2018-Feb-11 11:00N 32°05' W 081°04'0 0.0
2018-Feb-11 10:30N 32°05' W 081°04'0 0.0
2018-Feb-11 09:59N 32°05' W 081°04'0 0.0
2018-Feb-11 09:30N 32°05' W 081°04'0 0.0
2018-Feb-11 09:00N 32°05' W 081°04'0 0.0
2018-Feb-11 08:30N 32°05' W 081°04'0 0.0
2018-Feb-11 08:00N 32°05' W 081°04'0 0.0
2018-Feb-11 07:29N 32°05' W 081°04'0 0.0
2018-Feb-11 07:00N 32°05' W 081°04'0 0.0
2018-Feb-11 06:30N 32°05' W 081°04'0 0.0
2018-Feb-11 05:59N 32°05' W 081°04'0 0.0
2018-Feb-11 05:24N 32°05' W 081°04'0 0.0
2018-Feb-11 05:00N 32°05' W 081°04'0 0.0
2018-Feb-11 04:28N 32°05' W 081°04'0 0.0
2018-Feb-11 03:58N 32°05' W 081°04'0 0.0
2018-Feb-11 03:30N 32°05' W 081°04'0 0.0
2018-Feb-11 03:00N 32°05' W 081°04'0 0.0
2018-Feb-11 02:30N 32°05' W 081°04'1 2.9
2018-Feb-11 02:00N 32°05' W 081°06'3 5.9
2018-Feb-11 01:30N 32°07' W 081°08'1 2.0
2018-Feb-11 01:00N 32°08' W 081°09'0 0.1
2018-Feb-11 00:29N 32°08' W 081°08'0 0.7
2018-Feb-11 00:00N 32°08' W 081°08'2 4.0
2018-Feb-10 23:30N 32°06' W 081°07'3 5.4
2018-Feb-10 23:00N 32°05' W 081°04'0 0.5
2018-Feb-10 22:30N 32°05' W 081°04'4 7.2
2018-Feb-10 22:00N 32°07' W 081°08'0 1.0
2018-Feb-10 21:30N 32°07' W 081°08'4 8.7
2018-Feb-10 21:00N 32°05' W 081°04'0 0.0
2018-Feb-10 20:30N 32°05' W 081°04'0 0.2
2018-Feb-10 20:00N 32°05' W 081°04'3 5.4
2018-Feb-10 19:31N 32°06' W 081°07'2 4.5
2018-Feb-10 19:00N 32°08' W 081°08'1 1.2
2018-Feb-10 18:31N 32°08' W 081°09'3 6.1
2018-Feb-10 18:00N 32°06' W 081°07'0 0.6
2018-Feb-10 17:31N 32°06' W 081°06'2 4.4
2018-Feb-10 17:00N 32°05' W 081°04'0 0.0
2018-Feb-10 16:30N 32°05' W 081°04'0 0.0
2018-Feb-10 16:00N 32°05' W 081°04'0 0.0
2018-Feb-10 15:31N 32°05' W 081°04'0 0.0
2018-Feb-10 15:01N 32°05' W 081°04'0 0.0
2018-Feb-10 14:29N 32°05' W 081°04'0 0.0
2018-Feb-10 14:00N 32°05' W 081°04'0 0.0
2018-Feb-10 13:29N 32°05' W 081°04'0 0.0
2018-Feb-10 13:01N 32°05' W 081°04'0 0.0
2018-Feb-10 12:30N 32°05' W 081°04'0 0.0
2018-Feb-10 12:01N 32°05' W 081°04'0 0.0
2018-Feb-10 11:30N 32°05' W 081°04'0 0.0
2018-Feb-10 10:59N 32°05' W 081°04'0 0.0
2018-Feb-10 10:30N 32°05' W 081°04'0 0.0
2018-Feb-10 10:00N 32°05' W 081°04'0 0.0
2018-Feb-10 09:29N 32°05' W 081°04'0 0.0
2018-Feb-10 08:51N 32°05' W 081°04'0 0.0
2018-Feb-10 08:30N 32°05' W 081°04'0 0.0
2018-Feb-10 08:01N 32°05' W 081°04'0 0.0
2018-Feb-10 07:29N 32°05' W 081°04'0 0.0
2018-Feb-10 07:00N 32°05' W 081°04'0 0.0
2018-Feb-10 06:31N 32°05' W 081°04'0 0.0
2018-Feb-10 05:59N 32°05' W 081°04'0 0.0
2018-Feb-10 05:28N 32°05' W 081°04'0 0.0
2018-Feb-10 05:00N 32°05' W 081°04'0 0.0
2018-Feb-10 04:30N 32°05' W 081°04'0 0.0
2018-Feb-10 04:01N 32°05' W 081°04'0 0.0
2018-Feb-10 03:30N 32°05' W 081°04'0 0.0
2018-Feb-10 03:00N 32°05' W 081°04'0 0.0
2018-Feb-10 02:30N 32°05' W 081°04'0 0.6
2018-Feb-10 02:00N 32°05' W 081°04'2 4.7
2018-Feb-10 01:30N 32°06' W 081°07'2 4.1
2018-Feb-10 01:00N 32°08' W 081°08'1 1.5
2018-Feb-10 00:31N 32°08' W 081°09'0 0.1
2018-Feb-10 00:00N 32°08' W 081°09'1 1.5
2018-Feb-09 23:30N 32°08' W 081°08'0 0.0
2018-Feb-09 23:00N 32°08' W 081°08'0 0.2
2018-Feb-09 22:46N 32°08' W 081°08'0 0.3
2018-Feb-09 21:00N 32°08' W 081°08'2 4.6
2018-Feb-09 20:30N 32°06' W 081°07'2 4.3
2018-Feb-09 20:00N 32°05' W 081°05'  
Track history (hours):
 
Tides and Currents Weather Stations Pressure Air Temp Water Temp Dewpoint Dewpoint Depression Visibility Wind Speed Wind Dir Waves Ship Positions

Cooper Moran

Owner: MORAN TOWING CORPORATION, New Canaan, CT. More information available from US FCC via Universal Licensing System and Coast Guard Vessel Documentation Center.

Last reported at 2018-Feb-19 00:00 UTC. Time now 2018-Feb-19 00:13 UTC.
Position N 32°05' W 081°04'.

Length 28 m; draft 5.2 m.

Type: Tug. MMSI: 367745820.

Date/timePositionNaut miles runAvg speedWind from/ knotsBaromVisibWave heightAir tempDewpointWater temp
2018-Feb-19 00:00N 32°05' W 081°04'0 0.0
2018-Feb-18 23:30N 32°05' W 081°04'0 0.0
2018-Feb-18 22:59N 32°05' W 081°04'0 0.0
2018-Feb-18 22:30N 32°05' W 081°04'0 0.0
2018-Feb-18 22:00N 32°05' W 081°04'0 0.0
2018-Feb-18 21:30N 32°05' W 081°04'0 0.0
2018-Feb-18 21:00N 32°05' W 081°04'0 0.0
2018-Feb-18 20:29N 32°05' W 081°04'0 0.0
2018-Feb-18 20:00N 32°05' W 081°04'0 0.0
2018-Feb-18 19:29N 32°05' W 081°04'0 0.0
2018-Feb-18 19:00N 32°05' W 081°04'0 0.0
2018-Feb-18 18:30N 32°05' W 081°04'0 0.0
2018-Feb-18 17:58N 32°05' W 081°04'1 1.3
2018-Feb-18 17:30N 32°05' W 081°05'4 8.5
2018-Feb-18 17:00N 32°08' W 081°08'1 1.3
2018-Feb-18 16:30N 32°08' W 081°09'1 1.5
2018-Feb-18 16:00N 32°08' W 081°08'3 5.0
2018-Feb-18 15:30N 32°06' W 081°06'2 4.5
2018-Feb-18 15:00N 32°05' W 081°04'1 2.7
2018-Feb-18 14:30N 32°05' W 081°02'1 1.7
2018-Feb-18 14:00N 32°05' W 081°03'3 6.1
2018-Feb-18 13:30N 32°06' W 081°06'3 5.7
2018-Feb-18 13:00N 32°08' W 081°08'0 0.8
2018-Feb-18 12:30N 32°08' W 081°09'1 2.6
2018-Feb-18 12:00N 32°07' W 081°08'0 0.0
2018-Feb-18 11:30N 32°07' W 081°08'0 0.0
2018-Feb-18 11:00N 32°07' W 081°08'0 0.0
2018-Feb-18 10:30N 32°07' W 081°08'1 1.3
2018-Feb-18 10:00N 32°08' W 081°08'0 0.3
2018-Feb-18 09:29N 32°08' W 081°08'3 6.3
2018-Feb-18 09:00N 32°05' W 081°06'2 3.8
2018-Feb-18 08:30N 32°05' W 081°04'0 0.0
2018-Feb-18 07:59N 32°05' W 081°04'0 0.0
2018-Feb-18 07:30N 32°05' W 081°04'0 0.0
2018-Feb-18 07:00N 32°05' W 081°04'0 0.0
2018-Feb-18 06:30N 32°05' W 081°04'0 0.0
2018-Feb-18 06:00N 32°05' W 081°04'0 0.0
2018-Feb-18 05:30N 32°05' W 081°04'0 0.0
2018-Feb-18 04:58N 32°05' W 081°04'0 0.0
2018-Feb-18 04:30N 32°05' W 081°04'0 0.0
2018-Feb-18 04:00N 32°05' W 081°04'0 0.0
2018-Feb-18 03:30N 32°05' W 081°04'2 4.8
2018-Feb-18 03:00N 32°06' W 081°06'3 5.4
2018-Feb-18 02:29N 32°08' W 081°08'2 3.4
2018-Feb-18 02:00N 32°07' W 081°07'3 6.8
2018-Feb-18 01:30N 32°05' W 081°04'0 0.0
2018-Feb-18 01:00N 32°05' W 081°04'0 0.0
2018-Feb-18 00:30N 32°05' W 081°04'0 0.0
2018-Feb-18 00:00N 32°05' W 081°04'0 0.0
2018-Feb-17 23:30N 32°05' W 081°04'0 0.6
2018-Feb-17 23:00N 32°05' W 081°04'0 0.6
2018-Feb-17 22:30N 32°05' W 081°04'1 1.2
2018-Feb-17 22:00N 32°05' W 081°04'0 0.0
2018-Feb-17 21:25N 32°05' W 081°04'0 0.0
2018-Feb-17 21:00N 32°05' W 081°04'0 0.0
2018-Feb-17 20:28N 32°05' W 081°04'0 0.0
2018-Feb-17 20:00N 32°05' W 081°04'0 0.0
2018-Feb-17 19:28N 32°05' W 081°04'0 0.0
2018-Feb-17 18:58N 32°05' W 081°04'0 0.0
2018-Feb-17 18:28N 32°05' W 081°04'0 0.0
2018-Feb-17 18:00N 32°05' W 081°04'1 1.2
2018-Feb-17 17:30N 32°05' W 081°05'3 5.9
2018-Feb-17 17:00N 32°07' W 081°07'2 3.5
2018-Feb-17 16:30N 32°08' W 081°08'0 0.3
2018-Feb-17 16:00N 32°08' W 081°09'0 0.1
2018-Feb-17 15:30N 32°08' W 081°08'1 2.7
2018-Feb-17 15:00N 32°07' W 081°08'3 5.4
2018-Feb-17 14:30N 32°05' W 081°05'4 7.1
2018-Feb-17 14:00N 32°05' W 081°01'2 4.2
2018-Feb-17 13:30N 32°05' W 081°04'3 7.0
2018-Feb-17 13:00N 32°07' W 081°07'2 3.8
2018-Feb-17 12:30N 32°08' W 081°09'1 1.1
2018-Feb-17 12:00N 32°08' W 081°08'0 0.7
2018-Feb-17 11:30N 32°08' W 081°08'0 0.1
2018-Feb-17 11:00N 32°08' W 081°09'0 0.4
2018-Feb-17 10:30N 32°08' W 081°09'0 0.0
2018-Feb-17 10:00N 32°08' W 081°09'0 0.0
2018-Feb-17 09:28N 32°08' W 081°09'0 0.0
2018-Feb-17 09:00N 32°08' W 081°09'0 0.0
2018-Feb-17 08:30N 32°08' W 081°09'0 0.0
2018-Feb-17 08:00N 32°08' W 081°09'0 0.0
2018-Feb-17 07:30N 32°08' W 081°09'0 0.0
2018-Feb-17 07:00N 32°08' W 081°09'0 0.0
2018-Feb-17 06:30N 32°08' W 081°09'0 0.0
2018-Feb-17 06:00N 32°08' W 081°09'0 0.0
2018-Feb-17 05:30N 32°08' W 081°09'0 0.0
2018-Feb-17 05:00N 32°08' W 081°09'0 0.0
2018-Feb-17 04:30N 32°08' W 081°09'0 0.0
2018-Feb-17 03:58N 32°08' W 081°09'0 0.0
2018-Feb-17 03:30N 32°08' W 081°09'1 1.7
2018-Feb-17 03:00N 32°07' W 081°08'0 0.8
2018-Feb-17 02:30N 32°08' W 081°08'3 5.9
2018-Feb-17 02:00N 32°05' W 081°06'3 5.5
2018-Feb-17 01:30N 32°08' W 081°08'0 0.6
2018-Feb-17 01:00N 32°07' W 081°08'1 1.5
2018-Feb-17 00:30N 32°07' W 081°07'3 7.0
2018-Feb-17 00:00N 32°05' W 081°04'0 0.5
2018-Feb-16 23:30N 32°05' W 081°04'0 0.0
2018-Feb-16 23:00N 32°05' W 081°04'0 0.0
2018-Feb-16 22:28N 32°05' W 081°04'0 0.0
2018-Feb-16 22:00N 32°05' W 081°04'0 0.0
2018-Feb-16 21:30N 32°05' W 081°04'0 0.0
2018-Feb-16 21:00N 32°05' W 081°04'0 0.0
2018-Feb-16 20:30N 32°05' W 081°04'0 0.0
2018-Feb-16 20:00N 32°05' W 081°04'0 0.0
2018-Feb-16 19:29N 32°05' W 081°04'0 0.0
2018-Feb-16 19:00N 32°05' W 081°04'0 0.0
2018-Feb-16 18:29N 32°05' W 081°04'0 0.0
2018-Feb-16 18:00N 32°05' W 081°04'0 0.0
2018-Feb-16 17:30N 32°05' W 081°04'3 6.5
2018-Feb-16 17:00N 32°06' W 081°07'2 4.0
2018-Feb-16 16:30N 32°08' W 081°09'0 0.2
2018-Feb-16 16:00N 32°08' W 081°08'0 0.7
2018-Feb-16 15:30N 32°08' W 081°09'1 1.3
2018-Feb-16 15:00N 32°08' W 081°08'3 5.3
2018-Feb-16 14:30N 32°06' W 081°06'2 4.6
2018-Feb-16 14:00N 32°05' W 081°04'0 0.0
2018-Feb-16 13:30N 32°05' W 081°04'0 0.0
2018-Feb-16 13:00N 32°05' W 081°04'1 1.0
2018-Feb-16 12:28N 32°05' W 081°04'3 6.2
2018-Feb-16 12:00N 32°06' W 081°07'2 4.2
2018-Feb-16 11:30N 32°08' W 081°08'0 0.1
2018-Feb-16 11:00N 32°08' W 081°09'1 2.5
2018-Feb-16 10:30N 32°07' W 081°08'4 7.2
2018-Feb-16 10:00N 32°05' W 081°05'1 1.3
2018-Feb-16 09:28N 32°05' W 081°04'0 0.0
2018-Feb-16 08:59N 32°05' W 081°04'0 0.0
2018-Feb-16 08:30N 32°05' W 081°04'0 0.0
2018-Feb-16 08:00N 32°05' W 081°04'0 0.0
2018-Feb-16 07:30N 32°05' W 081°04'0 0.0
2018-Feb-16 07:00N 32°05' W 081°04'0 0.0
2018-Feb-16 06:29N 32°05' W 081°04'0 0.0
2018-Feb-16 06:00N 32°05' W 081°04'0 0.0
2018-Feb-16 05:28N 32°05' W 081°04'0 0.0
2018-Feb-16 04:53N 32°05' W 081°04'0 0.0
2018-Feb-16 04:30N 32°05' W 081°04'0 0.0
2018-Feb-16 03:59N 32°05' W 081°04'0 0.0
2018-Feb-16 03:30N 32°05' W 081°04'0 0.0
2018-Feb-16 03:00N 32°05' W 081°04'0 0.0
2018-Feb-16 02:27N 32°05' W 081°04'0 0.0
2018-Feb-16 02:00N 32°05' W 081°04'0 0.0
2018-Feb-16 01:28N 32°05' W 081°04'0 0.0
2018-Feb-16 00:58N 32°05' W 081°04'0 0.0
2018-Feb-16 00:30N 32°05' W 081°04'0 0.0
2018-Feb-16 00:00N 32°05' W 081°04'0 0.0
2018-Feb-15 23:30N 32°05' W 081°04'0 0.0
2018-Feb-15 23:00N 32°05' W 081°04'0 0.0
2018-Feb-15 22:30N 32°05' W 081°04'0 0.0
2018-Feb-15 22:00N 32°05' W 081°04'0 0.0
2018-Feb-15 21:30N 32°05' W 081°04'0 0.0
2018-Feb-15 20:59N 32°05' W 081°04'0 0.0
2018-Feb-15 20:30N 32°05' W 081°04'0 0.0
2018-Feb-15 20:00N 32°05' W 081°04'0 0.0
2018-Feb-15 19:30N 32°05' W 081°04'0 0.0
2018-Feb-15 19:00N 32°05' W 081°04'0 0.0
2018-Feb-15 18:30N 32°05' W 081°04'1 1.1
2018-Feb-15 18:00N 32°05' W 081°04'4 8.0
2018-Feb-15 17:30N 32°07' W 081°08'0 0.5
2018-Feb-15 17:00N 32°07' W 081°08'0 0.9
2018-Feb-15 16:30N 32°07' W 081°07'1 2.0
2018-Feb-15 16:00N 32°08' W 081°08'0 0.3
2018-Feb-15 15:30N 32°08' W 081°08'3 5.5
2018-Feb-15 15:00N 32°06' W 081°06'1 1.1
2018-Feb-15 14:30N 32°05' W 081°06'0 0.0
2018-Feb-15 14:00N 32°05' W 081°06'0 0.0
2018-Feb-15 13:30N 32°05' W 081°06'0 0.0
2018-Feb-15 13:00N 32°05' W 081°06'2 3.3
2018-Feb-15 12:30N 32°05' W 081°04'4 7.6
2018-Feb-15 12:00N 32°07' W 081°08'1 1.7
2018-Feb-15 11:30N 32°08' W 081°08'0 0.4
2018-Feb-15 11:00N 32°08' W 081°08'2 4.5
2018-Feb-15 10:31N 32°06' W 081°07'3 5.6
2018-Feb-15 10:00N 32°05' W 081°04'1 2.8
2018-Feb-15 09:30N 32°05' W 081°02'1 3.0
2018-Feb-15 09:00N 32°05' W 081°04'0 0.0
2018-Feb-15 08:30N 32°05' W 081°04'0 0.0
2018-Feb-15 08:00N 32°05' W 081°04'0 0.0
2018-Feb-15 07:30N 32°05' W 081°04'0 0.0
2018-Feb-15 07:00N 32°05' W 081°04'0 0.0
2018-Feb-15 06:29N 32°05' W 081°04'1 1.2
2018-Feb-15 05:59N 32°05' W 081°04'3 6.7
2018-Feb-15 05:30N 32°07' W 081°07'1 3.0
2018-Feb-15 05:00N 32°06' W 081°06'2 3.7
2018-Feb-15 04:30N 32°05' W 081°04'0 0.9
2018-Feb-15 04:00N 32°05' W 081°04'0 0.0
2018-Feb-15 03:30N 32°05' W 081°04'0 0.0
2018-Feb-15 02:57N 32°05' W 081°04'0 0.0
2018-Feb-15 02:30N 32°05' W 081°04'0 0.0
2018-Feb-15 02:00N 32°05' W 081°04'4 7.4
2018-Feb-15 01:30N 32°07' W 081°08'1 2.9
2018-Feb-15 01:00N 32°08' W 081°09'0 0.1
2018-Feb-15 00:30N 32°08' W 081°08'1 2.0
2018-Feb-15 00:00N 32°07' W 081°08'2 4.3
2018-Feb-14 23:30N 32°05' W 081°06'0 0.0
2018-Feb-14 22:57N 32°05' W 081°06'0 0.0
2018-Feb-14 22:30N 32°05' W 081°06'2 3.2
2018-Feb-14 22:00N 32°07' W 081°07'1 2.7
2018-Feb-14 21:30N 32°08' W 081°08'0 0.3
2018-Feb-14 21:00N 32°08' W 081°08'0 0.2
2018-Feb-14 20:29N 32°08' W 081°08'0 0.2
2018-Feb-14 20:00N 32°08' W 081°08'2 3.0
2018-Feb-14 19:30N 32°07' W 081°07'3 6.3
2018-Feb-14 19:00N 32°05' W 081°04'1 1.0
2018-Feb-14 18:30N 32°05' W 081°04'0 0.0
2018-Feb-14 17:56N 32°05' W 081°04'0 0.0
2018-Feb-14 17:30N 32°05' W 081°04'0 0.0
2018-Feb-14 16:59N 32°05' W 081°04'0 0.0
2018-Feb-14 16:30N 32°05' W 081°04'0 0.0
2018-Feb-14 16:00N 32°05' W 081°04'0 0.0
2018-Feb-14 15:30N 32°05' W 081°04'1 1.3
2018-Feb-14 15:00N 32°05' W 081°05'4 8.4
2018-Feb-14 14:30N 32°08' W 081°08'1 1.5
2018-Feb-14 14:00N 32°08' W 081°09'1 1.6
2018-Feb-14 13:30N 32°08' W 081°08'2 4.6
2018-Feb-14 13:00N 32°06' W 081°06'2 4.6
2018-Feb-14 12:30N 32°05' W 081°04'3 5.9
2018-Feb-14 12:00N 32°06' W 081°01'3 6.9
2018-Feb-14 11:30N 32°04' W 080°57'3 5.8
2018-Feb-14 11:00N 32°06' W 080°60'3 6.6
2018-Feb-14 10:30N 32°05' W 081°04'0 0.2
2018-Feb-14 10:00N 32°05' W 081°04'0 0.0
2018-Feb-14 09:29N 32°05' W 081°04'0 0.0
2018-Feb-14 08:58N 32°05' W 081°04'1 1.5
2018-Feb-14 08:30N 32°05' W 081°03'3 5.2
2018-Feb-14 08:00N 32°05' W 081°06'2 4.8
2018-Feb-14 07:30N 32°07' W 081°08'1 2.5
2018-Feb-14 07:00N 32°08' W 081°09'0 0.1
2018-Feb-14 06:29N 32°08' W 081°09'1 1.5
2018-Feb-14 06:00N 32°08' W 081°08'3 7.0
2018-Feb-14 05:30N 32°05' W 081°06'1 2.9
2018-Feb-14 05:00N 32°05' W 081°04'0 0.0
2018-Feb-14 04:30N 32°05' W 081°04'0 0.0
2018-Feb-14 04:00N 32°05' W 081°04'0 0.0
2018-Feb-14 03:29N 32°05' W 081°04'0 0.0
2018-Feb-14 02:58N 32°05' W 081°04'0 0.0
2018-Feb-14 02:30N 32°05' W 081°04'1 2.5
2018-Feb-14 02:00N 32°05' W 081°05'3 6.7
2018-Feb-14 01:30N 32°07' W 081°08'1 2.3
2018-Feb-14 01:00N 32°06' W 081°07'3 6.6
2018-Feb-14 00:30N 32°05' W 081°04'0 0.1
2018-Feb-13 23:56N 32°05' W 081°04'0 0.7
2018-Feb-13 23:30N 32°05' W 081°04'3 6.9
2018-Feb-13 23:00N 32°07' W 081°07'1 1.4
2018-Feb-13 22:30N 32°07' W 081°08'0 0.4
2018-Feb-13 22:00N 32°07' W 081°08'2 2.9
2018-Feb-13 21:29N 32°06' W 081°07'2 3.9
2018-Feb-13 21:00N 32°07' W 081°08'0 0.1
2018-Feb-13 20:30N 32°07' W 081°08'0 0.0
2018-Feb-13 20:00N 32°07' W 081°08'1 1.5
2018-Feb-13 19:30N 32°08' W 081°08'0 0.3
2018-Feb-13 19:00N 32°08' W 081°08'2 3.3
2018-Feb-13 18:30N 32°07' W 081°07'2 3.0
2018-Feb-13 18:00N 32°05' W 081°06'0 0.0
2018-Feb-13 17:30N 32°05' W 081°06'0 0.0
2018-Feb-13 17:00N 32°05' W 081°06'0 0.0
2018-Feb-13 16:30N 32°05' W 081°06'2 4.3
2018-Feb-13 16:00N 32°07' W 081°08'1 2.2
2018-Feb-13 15:30N 32°08' W 081°08'1 1.8
2018-Feb-13 15:00N 32°07' W 081°08'0 0.0
2018-Feb-13 14:30N 32°07' W 081°08'0 0.0
2018-Feb-13 14:00N 32°07' W 081°08'0 0.0
2018-Feb-13 13:28N 32°07' W 081°08'0 0.0
2018-Feb-13 13:00N 32°07' W 081°08'0 0.0
2018-Feb-13 12:30N 32°07' W 081°08'0 0.0
2018-Feb-13 12:00N 32°07' W 081°08'0 0.0
2018-Feb-13 11:30N 32°07' W 081°08'0 0.0
2018-Feb-13 11:00N 32°07' W 081°08'0 0.0
2018-Feb-13 10:30N 32°07' W 081°08'0 0.0
2018-Feb-13 09:58N 32°07' W 081°08'0 0.0
2018-Feb-13 09:29N 32°07' W 081°08'0 0.0
2018-Feb-13 08:59N 32°07' W 081°08'2 3.4
2018-Feb-13 08:30N 32°09' W 081°09'0 0.0
2018-Feb-13 08:00N 32°09' W 081°09'1 2.4
2018-Feb-13 07:30N 32°08' W 081°08'1 1.0
2018-Feb-13 07:00N 32°08' W 081°08'2 3.1
2018-Feb-13 06:30N 32°07' W 081°07'3 6.8
2018-Feb-13 06:00N 32°05' W 081°04'0 0.6
2018-Feb-13 05:29N 32°05' W 081°04'0 0.0
2018-Feb-13 05:00N 32°05' W 081°04'0 0.0
2018-Feb-13 04:27N 32°05' W 081°04'0 0.0
2018-Feb-13 03:59N 32°05' W 081°04'0 0.0
2018-Feb-13 03:30N 32°05' W 081°04'0 1.0
2018-Feb-13 03:00N 32°05' W 081°04'4 8.6
2018-Feb-13 02:30N 32°08' W 081°08'0 0.3
2018-Feb-13 02:00N 32°08' W 081°08'2 3.5
2018-Feb-13 01:30N 32°06' W 081°07'3 6.0
2018-Feb-13 01:00N 32°05' W 081°04'0 0.0
2018-Feb-13 00:30N 32°05' W 081°04'0 0.0
2018-Feb-13 00:00N 32°05' W 081°04'0 0.0
2018-Feb-12 23:29N 32°05' W 081°04'0 0.0
2018-Feb-12 23:00N 32°05' W 081°04'0 0.0
2018-Feb-12 22:30N 32°05' W 081°04'0 0.0
2018-Feb-12 22:00N 32°05' W 081°04'0 0.0
2018-Feb-12 21:30N 32°05' W 081°04'0 0.0
2018-Feb-12 21:00N 32°05' W 081°04'0 0.8
2018-Feb-12 20:30N 32°05' W 081°04'4 7.9
2018-Feb-12 20:00N 32°07' W 081°08'1 1.2
2018-Feb-12 19:30N 32°08' W 081°08'3 5.3
2018-Feb-12 19:00N 32°06' W 081°06'2 4.6
2018-Feb-12 18:30N 32°07' W 081°08'0 0.1
2018-Feb-12 18:00N 32°07' W 081°08'0 0.1
2018-Feb-12 17:30N 32°07' W 081°08'2 5.0
2018-Feb-12 17:00N 32°06' W 081°06'2 4.2
2018-Feb-12 16:30N 32°05' W 081°04'0 0.0
2018-Feb-12 15:59N 32°05' W 081°04'0 0.0
2018-Feb-12 15:30N 32°05' W 081°04'0 0.0
2018-Feb-12 14:59N 32°05' W 081°04'0 0.0
2018-Feb-12 14:30N 32°05' W 081°04'0 0.0
2018-Feb-12 14:00N 32°05' W 081°04'0 0.0
2018-Feb-12 13:30N 32°05' W 081°04'0 0.0
2018-Feb-12 13:00N 32°05' W 081°04'0 0.0
2018-Feb-12 12:30N 32°05' W 081°04'0 0.0
2018-Feb-12 12:00N 32°05' W 081°04'0 0.0
2018-Feb-12 11:23N 32°05' W 081°04'0 0.0
2018-Feb-12 11:00N 32°05' W 081°04'1 2.6
2018-Feb-12 10:30N 32°05' W 081°05'1 2.1
2018-Feb-12 10:00N 32°06' W 081°06'3 6.3
2018-Feb-12 09:29N 32°08' W 081°09'0 0.0
2018-Feb-12 09:00N 32°08' W 081°09'0 0.7
2018-Feb-12 08:30N 32°08' W 081°08'2 4.0
2018-Feb-12 08:00N 32°06' W 081°07'3 6.3
2018-Feb-12 07:30N 32°05' W 081°04'1 2.4
2018-Feb-12 07:00N 32°05' W 081°02'1 2.3
2018-Feb-12 06:30N 32°05' W 081°04'0 0.0
2018-Feb-12 06:00N 32°05' W 081°04'0 0.0
2018-Feb-12 05:29N 32°05' W 081°04'0 0.0
2018-Feb-12 05:00N 32°05' W 081°04'0 0.0
2018-Feb-12 04:30N 32°05' W 081°04'0 0.0
2018-Feb-12 03:59N 32°05' W 081°04'0 0.0
2018-Feb-12 03:30N 32°05' W 081°04'0 0.0
2018-Feb-12 03:00N 32°05' W 081°04'3 5.5
2018-Feb-12 02:30N 32°06' W 081°07'2 4.0
2018-Feb-12 02:00N 32°08' W 081°08'1 2.5
2018-Feb-12 01:30N 32°07' W 081°07'3 6.9
2018-Feb-12 01:00N 32°05' W 081°04'0 0.0
2018-Feb-12 00:30N 32°05' W 081°04'0 0.0
2018-Feb-11 23:57N 32°05' W 081°04'0 0.0
2018-Feb-11 23:29N 32°05' W 081°04'0 0.0
2018-Feb-11 23:00N 32°05' W 081°04'0 0.0
2018-Feb-11 22:30N 32°05' W 081°04'0 0.0
2018-Feb-11 22:00N 32°05' W 081°04'0 0.0
2018-Feb-11 21:30N 32°05' W 081°04'0 0.0
2018-Feb-11 21:00N 32°05' W 081°04'0 0.0
2018-Feb-11 20:30N 32°05' W 081°04'0 0.0
2018-Feb-11 19:57N 32°05' W 081°04'0 0.0
2018-Feb-11 19:30N 32°05' W 081°04'0 0.0
2018-Feb-11 19:00N 32°05' W 081°04'0 0.0
2018-Feb-11 18:30N 32°05' W 081°04'0 0.0
2018-Feb-11 18:00N 32°05' W 081°04'0 0.0
2018-Feb-11 17:26N 32°05' W 081°04'0 0.0
2018-Feb-11 16:57N 32°05' W 081°04'0 0.0
2018-Feb-11 16:30N 32°05' W 081°04'0 0.0
2018-Feb-11 15:56N 32°05' W 081°04'0 0.0
2018-Feb-11 15:30N 32°05' W 081°04'0 0.0
2018-Feb-11 15:00N 32°05' W 081°04'0 0.0
2018-Feb-11 14:29N 32°05' W 081°04'0 0.0
2018-Feb-11 14:00N 32°05' W 081°04'0 0.0
2018-Feb-11 13:30N 32°05' W 081°04'0 0.0
2018-Feb-11 13:00N 32°05' W 081°04'0 0.0
2018-Feb-11 12:30N 32°05' W 081°04'0 0.0
2018-Feb-11 11:59N 32°05' W 081°04'0 0.0
2018-Feb-11 11:30N 32°05' W 081°04'0 0.0
2018-Feb-11 11:00N 32°05' W 081°04'0 0.0
2018-Feb-11 10:30N 32°05' W 081°04'0 0.0
2018-Feb-11 09:59N 32°05' W 081°04'0 0.0
2018-Feb-11 09:30N 32°05' W 081°04'0 0.0
2018-Feb-11 09:00N 32°05' W 081°04'0 0.0
2018-Feb-11 08:30N 32°05' W 081°04'0 0.0
2018-Feb-11 08:00N 32°05' W 081°04'0 0.0
2018-Feb-11 07:29N 32°05' W 081°04'0 0.0
2018-Feb-11 07:00N 32°05' W 081°04'0 0.0
2018-Feb-11 06:30N 32°05' W 081°04'0 0.0
2018-Feb-11 05:59N 32°05' W 081°04'0 0.0
2018-Feb-11 05:24N 32°05' W 081°04'0 0.0
2018-Feb-11 05:00N 32°05' W 081°04'0 0.0
2018-Feb-11 04:28N 32°05' W 081°04'0 0.0
2018-Feb-11 03:58N 32°05' W 081°04'0 0.0
2018-Feb-11 03:30N 32°05' W 081°04'0 0.0
2018-Feb-11 03:00N 32°05' W 081°04'0 0.0
2018-Feb-11 02:30N 32°05' W 081°04'1 2.9
2018-Feb-11 02:00N 32°05' W 081°06'3 5.9
2018-Feb-11 01:30N 32°07' W 081°08'1 2.0
2018-Feb-11 01:00N 32°08' W 081°09'0 0.1
2018-Feb-11 00:29N 32°08' W 081°08'0 0.7
2018-Feb-11 00:00N 32°08' W 081°08'2 4.0
2018-Feb-10 23:30N 32°06' W 081°07'3 5.4
2018-Feb-10 23:00N 32°05' W 081°04'0 0.5
2018-Feb-10 22:30N 32°05' W 081°04'4 7.2
2018-Feb-10 22:00N 32°07' W 081°08'0 1.0
2018-Feb-10 21:30N 32°07' W 081°08'4 8.7
2018-Feb-10 21:00N 32°05' W 081°04'0 0.0
2018-Feb-10 20:30N 32°05' W 081°04'0 0.2
2018-Feb-10 20:00N 32°05' W 081°04'3 5.4
2018-Feb-10 19:31N 32°06' W 081°07'2 4.5
2018-Feb-10 19:00N 32°08' W 081°08'1 1.2
2018-Feb-10 18:31N 32°08' W 081°09'3 6.1
2018-Feb-10 18:00N 32°06' W 081°07'0 0.6
2018-Feb-10 17:31N 32°06' W 081°06'2 4.4
2018-Feb-10 17:00N 32°05' W 081°04'0 0.0
2018-Feb-10 16:30N 32°05' W 081°04'0 0.0
2018-Feb-10 16:00N 32°05' W 081°04'0 0.0
2018-Feb-10 15:31N 32°05' W 081°04'0 0.0
2018-Feb-10 15:01N 32°05' W 081°04'0 0.0
2018-Feb-10 14:29N 32°05' W 081°04'0 0.0
2018-Feb-10 14:00N 32°05' W 081°04'0 0.0
2018-Feb-10 13:29N 32°05' W 081°04'0 0.0
2018-Feb-10 13:01N 32°05' W 081°04'0 0.0
2018-Feb-10 12:30N 32°05' W 081°04'0 0.0
2018-Feb-10 12:01N 32°05' W 081°04'0 0.0
2018-Feb-10 11:30N 32°05' W 081°04'0 0.0
2018-Feb-10 10:59N 32°05' W 081°04'0 0.0
2018-Feb-10 10:30N 32°05' W 081°04'0 0.0
2018-Feb-10 10:00N 32°05' W 081°04'0 0.0
2018-Feb-10 09:29N 32°05' W 081°04'0 0.0
2018-Feb-10 08:51N 32°05' W 081°04'0 0.0
2018-Feb-10 08:30N 32°05' W 081°04'0 0.0
2018-Feb-10 08:01N 32°05' W 081°04'0 0.0
2018-Feb-10 07:29N 32°05' W 081°04'0 0.0
2018-Feb-10 07:00N 32°05' W 081°04'0 0.0
2018-Feb-10 06:31N 32°05' W 081°04'0 0.0
2018-Feb-10 05:59N 32°05' W 081°04'0 0.0
2018-Feb-10 05:28N 32°05' W 081°04'0 0.0
2018-Feb-10 05:00N 32°05' W 081°04'0 0.0
2018-Feb-10 04:30N 32°05' W 081°04'0 0.0
2018-Feb-10 04:01N 32°05' W 081°04'0 0.0
2018-Feb-10 03:30N 32°05' W 081°04'0 0.0
2018-Feb-10 03:00N 32°05' W 081°04'0 0.0
2018-Feb-10 02:30N 32°05' W 081°04'0 0.6
2018-Feb-10 02:00N 32°05' W 081°04'2 4.7
2018-Feb-10 01:30N 32°06' W 081°07'2 4.1
2018-Feb-10 01:00N 32°08' W 081°08'1 1.5
2018-Feb-10 00:31N 32°08' W 081°09'0 0.1
2018-Feb-10 00:00N 32°08' W 081°09'1 1.5
2018-Feb-09 23:30N 32°08' W 081°08'0 0.0
2018-Feb-09 23:00N 32°08' W 081°08'0 0.2
2018-Feb-09 22:46N 32°08' W 081°08'0 0.3
2018-Feb-09 21:00N 32°08' W 081°08'2 4.6
2018-Feb-09 20:30N 32°06' W 081°07'2 4.3
2018-Feb-09 20:00N 32°05' W 081°05'  

Dump ship's entire track history